sensor_id;sensor_type;location;lat;lon;timestamp;P1;durP1;ratioP1;P2;durP2;ratioP2
29362;SDS011;16349;53.672;10.014;2023-11-19T00:00:05;8.43;;;6.03;;
29362;SDS011;16349;53.672;10.014;2023-11-19T00:02:36;7.60;;;5.90;;
29362;SDS011;16349;53.672;10.014;2023-11-19T00:05:03;8.50;;;5.77;;
29362;SDS011;16349;53.672;10.014;2023-11-19T00:07:33;7.37;;;5.10;;
29362;SDS011;16349;53.672;10.014;2023-11-19T00:10:00;6.90;;;5.40;;
29362;SDS011;16349;53.672;10.014;2023-11-19T00:12:35;6.13;;;5.37;;
29362;SDS011;16349;53.672;10.014;2023-11-19T00:15:03;6.53;;;5.50;;
29362;SDS011;16349;53.672;10.014;2023-11-19T00:17:31;5.77;;;4.87;;
29362;SDS011;16349;53.672;10.014;2023-11-19T00:19:58;5.57;;;4.47;;
29362;SDS011;16349;53.672;10.014;2023-11-19T00:22:25;6.37;;;4.67;;
29362;SDS011;16349;53.672;10.014;2023-11-19T00:24:53;5.93;;;4.27;;
29362;SDS011;16349;53.672;10.014;2023-11-19T00:27:20;7.20;;;4.37;;
29362;SDS011;16349;53.672;10.014;2023-11-19T00:29:47;4.93;;;4.03;;
29362;SDS011;16349;53.672;10.014;2023-11-19T00:32:14;7.33;;;4.00;;
29362;SDS011;16349;53.672;10.014;2023-11-19T00:34:43;5.23;;;3.50;;
29362;SDS011;16349;53.672;10.014;2023-11-19T00:37:10;5.40;;;4.30;;
29362;SDS011;16349;53.672;10.014;2023-11-19T00:39:37;5.37;;;4.23;;
29362;SDS011;16349;53.672;10.014;2023-11-19T00:42:05;4.90;;;3.50;;
29362;SDS011;16349;53.672;10.014;2023-11-19T00:44:32;4.87;;;4.00;;
29362;SDS011;16349;53.672;10.014;2023-11-19T00:46:59;4.23;;;3.30;;
29362;SDS011;16349;53.672;10.014;2023-11-19T00:49:27;3.50;;;3.20;;
29362;SDS011;16349;53.672;10.014;2023-11-19T00:51:55;3.77;;;3.17;;
29362;SDS011;16349;53.672;10.014;2023-11-19T00:54:21;3.17;;;2.87;;
29362;SDS011;16349;53.672;10.014;2023-11-19T00:56:50;3.23;;;2.97;;
29362;SDS011;16349;53.672;10.014;2023-11-19T00:59:18;3.73;;;2.57;;
29362;SDS011;16349;53.672;10.014;2023-11-19T01:01:45;2.97;;;2.77;;
29362;SDS011;16349;53.672;10.014;2023-11-19T01:04:13;3.03;;;2.73;;
29362;SDS011;16349;53.672;10.014;2023-11-19T01:06:40;3.20;;;2.13;;
29362;SDS011;16349;53.672;10.014;2023-11-19T01:09:07;3.00;;;2.73;;
29362;SDS011;16349;53.672;10.014;2023-11-19T01:11:35;2.23;;;2.03;;
29362;SDS011;16349;53.672;10.014;2023-11-19T01:14:02;2.73;;;2.53;;
29362;SDS011;16349;53.672;10.014;2023-11-19T01:16:30;2.60;;;2.40;;
29362;SDS011;16349;53.672;10.014;2023-11-19T01:18:57;2.30;;;2.10;;
29362;SDS011;16349;53.672;10.014;2023-11-19T01:21:23;2.27;;;2.10;;
29362;SDS011;16349;53.672;10.014;2023-11-19T01:23:51;2.30;;;2.17;;
29362;SDS011;16349;53.672;10.014;2023-11-19T01:26:18;1.90;;;1.80;;
29362;SDS011;16349;53.672;10.014;2023-11-19T01:28:45;2.03;;;1.87;;
29362;SDS011;16349;53.672;10.014;2023-11-19T01:31:14;2.00;;;1.90;;
29362;SDS011;16349;53.672;10.014;2023-11-19T01:33:43;1.77;;;1.60;;
29362;SDS011;16349;53.672;10.014;2023-11-19T01:36:12;3.03;;;1.57;;
29362;SDS011;16349;53.672;10.014;2023-11-19T01:38:39;3.17;;;1.40;;
29362;SDS011;16349;53.672;10.014;2023-11-19T01:41:06;2.57;;;1.53;;
29362;SDS011;16349;53.672;10.014;2023-11-19T01:43:34;1.67;;;1.40;;
29362;SDS011;16349;53.672;10.014;2023-11-19T01:46:01;1.93;;;1.73;;
29362;SDS011;16349;53.672;10.014;2023-11-19T01:48:29;1.43;;;1.33;;
29362;SDS011;16349;53.672;10.014;2023-11-19T01:50:59;1.47;;;1.37;;
29362;SDS011;16349;53.672;10.014;2023-11-19T01:53:27;2.00;;;1.30;;
29362;SDS011;16349;53.672;10.014;2023-11-19T01:55:55;1.00;;;1.00;;
29362;SDS011;16349;53.672;10.014;2023-11-19T01:58:23;1.57;;;1.30;;
29362;SDS011;16349;53.672;10.014;2023-11-19T02:00:50;1.77;;;1.60;;
29362;SDS011;16349;53.672;10.014;2023-11-19T02:03:17;1.50;;;1.40;;
29362;SDS011;16349;53.672;10.014;2023-11-19T02:05:45;1.40;;;1.20;;
29362;SDS011;16349;53.672;10.014;2023-11-19T02:08:15;1.60;;;1.43;;
29362;SDS011;16349;53.672;10.014;2023-11-19T02:10:42;1.20;;;1.10;;
29362;SDS011;16349;53.672;10.014;2023-11-19T02:13:09;2.70;;;1.40;;
29362;SDS011;16349;53.672;10.014;2023-11-19T02:15:36;1.00;;;0.97;;
29362;SDS011;16349;53.672;10.014;2023-11-19T02:18:18;0.87;;;0.87;;
29362;SDS011;16349;53.672;10.014;2023-11-19T02:20:47;1.10;;;1.00;;
29362;SDS011;16349;53.672;10.014;2023-11-19T02:23:16;1.17;;;1.07;;
29362;SDS011;16349;53.672;10.014;2023-11-19T02:25:45;0.80;;;0.80;;
29362;SDS011;16349;53.672;10.014;2023-11-19T02:28:19;0.90;;;0.90;;
29362;SDS011;16349;53.672;10.014;2023-11-19T02:30:47;0.70;;;0.70;;
29362;SDS011;16349;53.672;10.014;2023-11-19T02:33:13;0.93;;;0.80;;
29362;SDS011;16349;53.672;10.014;2023-11-19T02:35:40;0.80;;;0.80;;
29362;SDS011;16349;53.672;10.014;2023-11-19T02:38:07;0.93;;;0.93;;
29362;SDS011;16349;53.672;10.014;2023-11-19T02:40:34;1.50;;;0.77;;
29362;SDS011;16349;53.672;10.014;2023-11-19T02:43:01;0.80;;;0.80;;
29362;SDS011;16349;53.672;10.014;2023-11-19T02:45:31;0.80;;;0.80;;
29362;SDS011;16349;53.672;10.014;2023-11-19T02:47:58;0.70;;;0.70;;
29362;SDS011;16349;53.672;10.014;2023-11-19T02:50:27;0.97;;;0.93;;
29362;SDS011;16349;53.672;10.014;2023-11-19T02:52:54;0.67;;;0.60;;
29362;SDS011;16349;53.672;10.014;2023-11-19T02:55:22;1.00;;;0.97;;
29362;SDS011;16349;53.672;10.014;2023-11-19T02:57:50;0.50;;;0.50;;
29362;SDS011;16349;53.672;10.014;2023-11-19T03:00:19;0.93;;;0.93;;
29362;SDS011;16349;53.672;10.014;2023-11-19T03:02:51;0.60;;;0.60;;
29362;SDS011;16349;53.672;10.014;2023-11-19T03:05:24;1.10;;;1.00;;
29362;SDS011;16349;53.672;10.014;2023-11-19T03:07:55;0.90;;;0.90;;
29362;SDS011;16349;53.672;10.014;2023-11-19T03:10:22;0.90;;;0.90;;
29362;SDS011;16349;53.672;10.014;2023-11-19T03:12:50;0.80;;;0.80;;
29362;SDS011;16349;53.672;10.014;2023-11-19T03:15:17;0.97;;;0.97;;
29362;SDS011;16349;53.672;10.014;2023-11-19T03:17:46;1.47;;;1.00;;
29362;SDS011;16349;53.672;10.014;2023-11-19T03:20:14;1.33;;;1.23;;
29362;SDS011;16349;53.672;10.014;2023-11-19T03:22:42;1.33;;;1.23;;
29362;SDS011;16349;53.672;10.014;2023-11-19T03:25:09;1.67;;;1.27;;
29362;SDS011;16349;53.672;10.014;2023-11-19T03:27:36;1.07;;;1.07;;
29362;SDS011;16349;53.672;10.014;2023-11-19T03:30:05;1.77;;;1.10;;
29362;SDS011;16349;53.672;10.014;2023-11-19T03:32:32;1.53;;;1.40;;
29362;SDS011;16349;53.672;10.014;2023-11-19T03:35:00;1.50;;;1.40;;
29362;SDS011;16349;53.672;10.014;2023-11-19T03:37:30;1.50;;;1.40;;
29362;SDS011;16349;53.672;10.014;2023-11-19T03:39:58;1.70;;;1.60;;
29362;SDS011;16349;53.672;10.014;2023-11-19T03:42:27;2.00;;;1.90;;
29362;SDS011;16349;53.672;10.014;2023-11-19T03:44:55;1.97;;;1.87;;
29362;SDS011;16349;53.672;10.014;2023-11-19T03:47:23;2.30;;;2.10;;
29362;SDS011;16349;53.672;10.014;2023-11-19T03:49:50;1.80;;;1.70;;
29362;SDS011;16349;53.672;10.014;2023-11-19T03:52:17;2.10;;;2.00;;
29362;SDS011;16349;53.672;10.014;2023-11-19T03:54:46;2.23;;;2.10;;
29362;SDS011;16349;53.672;10.014;2023-11-19T03:57:13;2.37;;;2.20;;
29362;SDS011;16349;53.672;10.014;2023-11-19T03:59:40;2.53;;;2.33;;
29362;SDS011;16349;53.672;10.014;2023-11-19T04:02:07;2.33;;;2.23;;
29362;SDS011;16349;53.672;10.014;2023-11-19T04:04:35;2.57;;;2.37;;
29362;SDS011;16349;53.672;10.014;2023-11-19T04:07:03;2.70;;;2.50;;
29362;SDS011;16349;53.672;10.014;2023-11-19T04:09:30;3.20;;;3.00;;
29362;SDS011;16349;53.672;10.014;2023-11-19T04:11:59;3.50;;;3.20;;
29362;SDS011;16349;53.672;10.014;2023-11-19T04:14:26;4.10;;;2.97;;
29362;SDS011;16349;53.672;10.014;2023-11-19T04:16:53;3.47;;;3.17;;
29362;SDS011;16349;53.672;10.014;2023-11-19T04:19:20;3.57;;;3.27;;
29362;SDS011;16349;53.672;10.014;2023-11-19T04:21:47;4.53;;;4.13;;
29362;SDS011;16349;53.672;10.014;2023-11-19T04:24:14;3.70;;;3.33;;
29362;SDS011;16349;53.672;10.014;2023-11-19T04:26:41;5.87;;;3.70;;
29362;SDS011;16349;53.672;10.014;2023-11-19T04:29:12;4.83;;;4.33;;
29362;SDS011;16349;53.672;10.014;2023-11-19T04:31:40;4.40;;;4.00;;
29362;SDS011;16349;53.672;10.014;2023-11-19T04:34:07;4.70;;;4.30;;
29362;SDS011;16349;53.672;10.014;2023-11-19T04:36:34;4.77;;;4.37;;
29362;SDS011;16349;53.672;10.014;2023-11-19T04:39:02;7.30;;;4.40;;
29362;SDS011;16349;53.672;10.014;2023-11-19T04:41:33;5.10;;;4.57;;
29362;SDS011;16349;53.672;10.014;2023-11-19T04:44:00;4.63;;;4.30;;
29362;SDS011;16349;53.672;10.014;2023-11-19T04:46:28;6.20;;;4.53;;
29362;SDS011;16349;53.672;10.014;2023-11-19T04:48:55;5.77;;;4.60;;
29362;SDS011;16349;53.672;10.014;2023-11-19T04:51:22;6.10;;;5.50;;
29362;SDS011;16349;53.672;10.014;2023-11-19T04:53:49;9.43;;;5.80;;
29362;SDS011;16349;53.672;10.014;2023-11-19T04:56:16;8.73;;;6.50;;
29362;SDS011;16349;53.672;10.014;2023-11-19T04:58:44;8.20;;;6.60;;
29362;SDS011;16349;53.672;10.014;2023-11-19T05:01:13;12.33;;;6.77;;
29362;SDS011;16349;53.672;10.014;2023-11-19T05:03:43;9.20;;;6.53;;
29362;SDS011;16349;53.672;10.014;2023-11-19T05:06:10;8.70;;;7.73;;
29362;SDS011;16349;53.672;10.014;2023-11-19T05:08:37;10.07;;;7.83;;
29362;SDS011;16349;53.672;10.014;2023-11-19T05:11:04;13.90;;;8.80;;
29362;SDS011;16349;53.672;10.014;2023-11-19T05:13:32;12.07;;;9.30;;
29362;SDS011;16349;53.672;10.014;2023-11-19T05:15:58;12.23;;;8.93;;
29362;SDS011;16349;53.672;10.014;2023-11-19T05:18:25;14.47;;;9.13;;
29362;SDS011;16349;53.672;10.014;2023-11-19T05:20:53;15.10;;;10.33;;
29362;SDS011;16349;53.672;10.014;2023-11-19T05:23:20;15.40;;;9.80;;
29362;SDS011;16349;53.672;10.014;2023-11-19T05:25:47;13.10;;;8.77;;
29362;SDS011;16349;53.672;10.014;2023-11-19T05:28:14;13.23;;;10.10;;
29362;SDS011;16349;53.672;10.014;2023-11-19T05:30:40;13.50;;;9.93;;
29362;SDS011;16349;53.672;10.014;2023-11-19T05:33:08;14.57;;;9.97;;
29362;SDS011;16349;53.672;10.014;2023-11-19T05:35:34;19.30;;;10.60;;
29362;SDS011;16349;53.672;10.014;2023-11-19T05:38:03;15.97;;;10.47;;
29362;SDS011;16349;53.672;10.014;2023-11-19T05:40:31;14.73;;;10.43;;
29362;SDS011;16349;53.672;10.014;2023-11-19T05:42:58;20.03;;;10.27;;
29362;SDS011;16349;53.672;10.014;2023-11-19T05:45:24;18.57;;;11.73;;
29362;SDS011;16349;53.672;10.014;2023-11-19T05:47:51;20.03;;;11.53;;
29362;SDS011;16349;53.672;10.014;2023-11-19T05:50:18;20.43;;;10.57;;
29362;SDS011;16349;53.672;10.014;2023-11-19T05:52:45;16.37;;;11.60;;
29362;SDS011;16349;53.672;10.014;2023-11-19T05:55:14;23.10;;;12.33;;
29362;SDS011;16349;53.672;10.014;2023-11-19T05:57:40;24.17;;;12.13;;
29362;SDS011;16349;53.672;10.014;2023-11-19T06:00:08;20.37;;;11.57;;
29362;SDS011;16349;53.672;10.014;2023-11-19T06:02:38;16.77;;;10.97;;
29362;SDS011;16349;53.672;10.014;2023-11-19T06:05:05;18.90;;;11.93;;
29362;SDS011;16349;53.672;10.014;2023-11-19T06:07:32;20.37;;;11.63;;
29362;SDS011;16349;53.672;10.014;2023-11-19T06:10:00;18.30;;;11.67;;
29362;SDS011;16349;53.672;10.014;2023-11-19T06:12:29;18.57;;;11.50;;
29362;SDS011;16349;53.672;10.014;2023-11-19T06:14:57;26.83;;;12.40;;
29362;SDS011;16349;53.672;10.014;2023-11-19T06:17:23;20.60;;;12.67;;
29362;SDS011;16349;53.672;10.014;2023-11-19T06:19:50;24.27;;;12.73;;
29362;SDS011;16349;53.672;10.014;2023-11-19T06:22:17;19.10;;;11.73;;
29362;SDS011;16349;53.672;10.014;2023-11-19T06:24:44;23.93;;;12.90;;
29362;SDS011;16349;53.672;10.014;2023-11-19T06:27:11;30.60;;;13.77;;
29362;SDS011;16349;53.672;10.014;2023-11-19T06:29:39;29.63;;;14.20;;
29362;SDS011;16349;53.672;10.014;2023-11-19T06:32:07;32.13;;;15.33;;
29362;SDS011;16349;53.672;10.014;2023-11-19T06:34:33;37.83;;;15.47;;
29362;SDS011;16349;53.672;10.014;2023-11-19T06:37:00;39.53;;;14.77;;
29362;SDS011;16349;53.672;10.014;2023-11-19T06:39:28;38.03;;;14.23;;
29362;SDS011;16349;53.672;10.014;2023-11-19T06:41:55;37.83;;;14.97;;
29362;SDS011;16349;53.672;10.014;2023-11-19T06:44:21;41.77;;;15.70;;
29362;SDS011;16349;53.672;10.014;2023-11-19T06:46:51;34.77;;;14.20;;
29362;SDS011;16349;53.672;10.014;2023-11-19T06:49:18;32.70;;;14.10;;
29362;SDS011;16349;53.672;10.014;2023-11-19T06:51:45;27.93;;;12.63;;
29362;SDS011;16349;53.672;10.014;2023-11-19T06:54:12;38.43;;;14.03;;
29362;SDS011;16349;53.672;10.014;2023-11-19T06:56:39;31.87;;;12.60;;
29362;SDS011;16349;53.672;10.014;2023-11-19T06:59:06;33.43;;;11.83;;
29362;SDS011;16349;53.672;10.014;2023-11-19T07:01:34;25.40;;;10.90;;
29362;SDS011;16349;53.672;10.014;2023-11-19T07:04:03;29.33;;;11.83;;
29362;SDS011;16349;53.672;10.014;2023-11-19T07:06:34;30.23;;;10.10;;
29362;SDS011;16349;53.672;10.014;2023-11-19T07:09:02;26.57;;;8.97;;
29362;SDS011;16349;53.672;10.014;2023-11-19T07:11:34;34.80;;;7.93;;
29362;SDS011;16349;53.672;10.014;2023-11-19T07:14:03;27.73;;;9.40;;
29362;SDS011;16349;53.672;10.014;2023-11-19T07:16:31;24.87;;;7.30;;
29362;SDS011;16349;53.672;10.014;2023-11-19T07:18:59;28.00;;;7.50;;
29362;SDS011;16349;53.672;10.014;2023-11-19T07:21:27;23.87;;;6.77;;
29362;SDS011;16349;53.672;10.014;2023-11-19T07:23:54;27.90;;;7.13;;
29362;SDS011;16349;53.672;10.014;2023-11-19T07:26:21;21.87;;;6.50;;
29362;SDS011;16349;53.672;10.014;2023-11-19T07:28:48;15.20;;;5.27;;
29362;SDS011;16349;53.672;10.014;2023-11-19T07:31:16;24.33;;;6.03;;
29362;SDS011;16349;53.672;10.014;2023-11-19T07:33:44;22.97;;;6.83;;
29362;SDS011;16349;53.672;10.014;2023-11-19T07:36:11;23.47;;;5.93;;
29362;SDS011;16349;53.672;10.014;2023-11-19T07:38:41;24.53;;;5.87;;
29362;SDS011;16349;53.672;10.014;2023-11-19T07:41:08;23.93;;;5.63;;
29362;SDS011;16349;53.672;10.014;2023-11-19T07:43:38;26.30;;;5.20;;
29362;SDS011;16349;53.672;10.014;2023-11-19T07:46:05;20.13;;;5.03;;
29362;SDS011;16349;53.672;10.014;2023-11-19T07:48:38;23.07;;;5.47;;
29362;SDS011;16349;53.672;10.014;2023-11-19T07:51:05;18.43;;;5.70;;
29362;SDS011;16349;53.672;10.014;2023-11-19T07:53:32;17.87;;;4.30;;
29362;SDS011;16349;53.672;10.014;2023-11-19T07:56:00;16.40;;;4.00;;
29362;SDS011;16349;53.672;10.014;2023-11-19T07:58:27;21.17;;;5.17;;
29362;SDS011;16349;53.672;10.014;2023-11-19T08:00:54;18.00;;;3.90;;
29362;SDS011;16349;53.672;10.014;2023-11-19T08:03:21;22.23;;;4.47;;
29362;SDS011;16349;53.672;10.014;2023-11-19T08:05:48;21.57;;;4.40;;
29362;SDS011;16349;53.672;10.014;2023-11-19T08:08:15;27.47;;;5.60;;
29362;SDS011;16349;53.672;10.014;2023-11-19T08:10:41;25.83;;;5.93;;
29362;SDS011;16349;53.672;10.014;2023-11-19T08:13:11;24.20;;;4.63;;
29362;SDS011;16349;53.672;10.014;2023-11-19T08:15:38;31.33;;;4.90;;
29362;SDS011;16349;53.672;10.014;2023-11-19T08:18:05;17.83;;;4.23;;
29362;SDS011;16349;53.672;10.014;2023-11-19T08:20:32;18.17;;;4.23;;
29362;SDS011;16349;53.672;10.014;2023-11-19T08:22:59;31.13;;;5.33;;
29362;SDS011;16349;53.672;10.014;2023-11-19T08:25:26;22.13;;;4.57;;
29362;SDS011;16349;53.672;10.014;2023-11-19T08:27:54;21.30;;;4.27;;
29362;SDS011;16349;53.672;10.014;2023-11-19T08:30:22;26.27;;;6.07;;
29362;SDS011;16349;53.672;10.014;2023-11-19T08:32:50;23.20;;;4.17;;
29362;SDS011;16349;53.672;10.014;2023-11-19T08:35:16;25.80;;;4.77;;
29362;SDS011;16349;53.672;10.014;2023-11-19T08:37:43;25.13;;;4.70;;
29362;SDS011;16349;53.672;10.014;2023-11-19T08:40:11;21.00;;;4.83;;
29362;SDS011;16349;53.672;10.014;2023-11-19T08:42:40;26.07;;;4.70;;
29362;SDS011;16349;53.672;10.014;2023-11-19T08:45:07;21.73;;;4.47;;
29362;SDS011;16349;53.672;10.014;2023-11-19T08:47:37;23.87;;;4.43;;
29362;SDS011;16349;53.672;10.014;2023-11-19T08:50:06;27.33;;;4.77;;
29362;SDS011;16349;53.672;10.014;2023-11-19T08:52:33;25.90;;;4.67;;
29362;SDS011;16349;53.672;10.014;2023-11-19T08:55:00;16.13;;;4.80;;
29362;SDS011;16349;53.672;10.014;2023-11-19T08:57:27;22.37;;;4.97;;
29362;SDS011;16349;53.672;10.014;2023-11-19T08:59:54;23.10;;;4.37;;
29362;SDS011;16349;53.672;10.014;2023-11-19T09:02:21;30.33;;;4.80;;
29362;SDS011;16349;53.672;10.014;2023-11-19T09:04:49;22.97;;;4.53;;
29362;SDS011;16349;53.672;10.014;2023-11-19T09:07:16;20.03;;;4.10;;
29362;SDS011;16349;53.672;10.014;2023-11-19T09:09:43;20.57;;;4.40;;
29362;SDS011;16349;53.672;10.014;2023-11-19T09:12:10;25.50;;;4.30;;
29362;SDS011;16349;53.672;10.014;2023-11-19T09:14:39;24.13;;;5.03;;
29362;SDS011;16349;53.672;10.014;2023-11-19T09:17:07;20.63;;;4.90;;
29362;SDS011;16349;53.672;10.014;2023-11-19T09:19:34;20.23;;;3.77;;
29362;SDS011;16349;53.672;10.014;2023-11-19T09:22:03;21.60;;;4.37;;
29362;SDS011;16349;53.672;10.014;2023-11-19T09:24:30;25.00;;;5.07;;
29362;SDS011;16349;53.672;10.014;2023-11-19T09:26:57;22.03;;;4.50;;
29362;SDS011;16349;53.672;10.014;2023-11-19T09:29:25;26.30;;;4.17;;
29362;SDS011;16349;53.672;10.014;2023-11-19T09:31:52;20.17;;;4.20;;
29362;SDS011;16349;53.672;10.014;2023-11-19T09:34:19;23.90;;;4.50;;
29362;SDS011;16349;53.672;10.014;2023-11-19T09:36:45;21.07;;;4.40;;
29362;SDS011;16349;53.672;10.014;2023-11-19T09:39:13;27.30;;;4.87;;
29362;SDS011;16349;53.672;10.014;2023-11-19T09:41:42;33.23;;;5.40;;
29362;SDS011;16349;53.672;10.014;2023-11-19T09:44:10;24.13;;;4.03;;
29362;SDS011;16349;53.672;10.014;2023-11-19T09:46:37;22.07;;;4.03;;
29362;SDS011;16349;53.672;10.014;2023-11-19T09:49:04;15.13;;;4.53;;
29362;SDS011;16349;53.672;10.014;2023-11-19T09:51:34;23.30;;;5.07;;
29362;SDS011;16349;53.672;10.014;2023-11-19T09:54:01;24.27;;;4.90;;
29362;SDS011;16349;53.672;10.014;2023-11-19T09:56:28;25.97;;;5.53;;
29362;SDS011;16349;53.672;10.014;2023-11-19T09:58:55;27.17;;;4.37;;
29362;SDS011;16349;53.672;10.014;2023-11-19T10:01:22;26.73;;;5.70;;
29362;SDS011;16349;53.672;10.014;2023-11-19T10:03:50;26.30;;;5.10;;
29362;SDS011;16349;53.672;10.014;2023-11-19T10:06:21;24.27;;;6.23;;
29362;SDS011;16349;53.672;10.014;2023-11-19T10:08:49;30.30;;;5.70;;
29362;SDS011;16349;53.672;10.014;2023-11-19T10:11:15;27.50;;;4.47;;
29362;SDS011;16349;53.672;10.014;2023-11-19T10:13:45;22.93;;;5.30;;
29362;SDS011;16349;53.672;10.014;2023-11-19T10:16:13;24.07;;;4.70;;
29362;SDS011;16349;53.672;10.014;2023-11-19T10:18:42;22.63;;;5.10;;
29362;SDS011;16349;53.672;10.014;2023-11-19T10:21:11;23.63;;;5.10;;
29362;SDS011;16349;53.672;10.014;2023-11-19T10:23:48;20.43;;;5.10;;
29362;SDS011;16349;53.672;10.014;2023-11-19T10:26:16;30.87;;;5.43;;
29362;SDS011;16349;53.672;10.014;2023-11-19T10:28:45;29.47;;;4.87;;
29362;SDS011;16349;53.672;10.014;2023-11-19T10:31:12;23.17;;;4.50;;
29362;SDS011;16349;53.672;10.014;2023-11-19T10:33:39;18.33;;;4.57;;
29362;SDS011;16349;53.672;10.014;2023-11-19T10:36:07;24.53;;;4.43;;
29362;SDS011;16349;53.672;10.014;2023-11-19T10:38:34;23.40;;;4.83;;
29362;SDS011;16349;53.672;10.014;2023-11-19T10:41:01;23.40;;;4.90;;
29362;SDS011;16349;53.672;10.014;2023-11-19T10:43:29;28.47;;;5.47;;
29362;SDS011;16349;53.672;10.014;2023-11-19T10:46:08;18.50;;;4.57;;
29362;SDS011;16349;53.672;10.014;2023-11-19T10:48:36;28.07;;;5.33;;
29362;SDS011;16349;53.672;10.014;2023-11-19T10:51:04;22.57;;;4.37;;
29362;SDS011;16349;53.672;10.014;2023-11-19T10:53:33;20.87;;;4.40;;
29362;SDS011;16349;53.672;10.014;2023-11-19T10:56:04;19.37;;;4.00;;
29362;SDS011;16349;53.672;10.014;2023-11-19T10:58:36;17.83;;;4.17;;
29362;SDS011;16349;53.672;10.014;2023-11-19T11:01:06;24.57;;;3.77;;
29362;SDS011;16349;53.672;10.014;2023-11-19T11:03:38;22.90;;;4.67;;
29362;SDS011;16349;53.672;10.014;2023-11-19T11:06:06;21.03;;;4.37;;
29362;SDS011;16349;53.672;10.014;2023-11-19T11:08:34;15.30;;;4.27;;
29362;SDS011;16349;53.672;10.014;2023-11-19T11:11:04;23.63;;;4.40;;
29362;SDS011;16349;53.672;10.014;2023-11-19T11:13:31;19.47;;;4.27;;
29362;SDS011;16349;53.672;10.014;2023-11-19T11:16:00;24.50;;;5.40;;
29362;SDS011;16349;53.672;10.014;2023-11-19T11:18:30;21.47;;;4.03;;
29362;SDS011;16349;53.672;10.014;2023-11-19T11:21:00;22.30;;;4.77;;
29362;SDS011;16349;53.672;10.014;2023-11-19T11:23:47;28.80;;;6.07;;
29362;SDS011;16349;53.672;10.014;2023-11-19T11:26:31;16.77;;;5.17;;
29362;SDS011;16349;53.672;10.014;2023-11-19T11:29:26;19.50;;;4.47;;
29362;SDS011;16349;53.672;10.014;2023-11-19T11:32:05;26.30;;;5.70;;
29362;SDS011;16349;53.672;10.014;2023-11-19T11:34:51;21.30;;;4.27;;
29362;SDS011;16349;53.672;10.014;2023-11-19T11:37:29;23.00;;;4.37;;
29362;SDS011;16349;53.672;10.014;2023-11-19T11:40:01;26.50;;;5.82;;
29362;SDS011;16349;53.672;10.014;2023-11-19T11:42:35;28.03;;;6.13;;
29362;SDS011;16349;53.672;10.014;2023-11-19T11:45:03;16.97;;;4.73;;
29362;SDS011;16349;53.672;10.014;2023-11-19T11:53:30;24.77;;;4.97;;
29362;SDS011;16349;53.672;10.014;2023-11-19T11:56:01;19.93;;;4.33;;
29362;SDS011;16349;53.672;10.014;2023-11-19T11:58:29;20.10;;;4.87;;
29362;SDS011;16349;53.672;10.014;2023-11-19T12:01:02;23.53;;;4.77;;
29362;SDS011;16349;53.672;10.014;2023-11-19T12:03:31;26.33;;;4.90;;
29362;SDS011;16349;53.672;10.014;2023-11-19T12:05:59;21.40;;;4.30;;
29362;SDS011;16349;53.672;10.014;2023-11-19T12:08:28;30.80;;;4.97;;
29362;SDS011;16349;53.672;10.014;2023-11-19T12:10:56;18.57;;;4.30;;
29362;SDS011;16349;53.672;10.014;2023-11-19T12:16:19;22.13;;;5.10;;
29362;SDS011;16349;53.672;10.014;2023-11-19T12:18:46;25.13;;;5.20;;
29362;SDS011;16349;53.672;10.014;2023-11-19T12:21:26;28.23;;;5.30;;
29362;SDS011;16349;53.672;10.014;2023-11-19T12:23:56;32.73;;;4.77;;
29362;SDS011;16349;53.672;10.014;2023-11-19T12:26:35;28.87;;;5.50;;
29362;SDS011;16349;53.672;10.014;2023-11-19T12:29:06;25.27;;;5.43;;
29362;SDS011;16349;53.672;10.014;2023-11-19T12:31:33;26.47;;;4.67;;
29362;SDS011;16349;53.672;10.014;2023-11-19T12:34:06;28.90;;;5.20;;
29362;SDS011;16349;53.672;10.014;2023-11-19T12:36:36;22.50;;;4.87;;
29362;SDS011;16349;53.672;10.014;2023-11-19T12:39:05;23.53;;;4.47;;
29362;SDS011;16349;53.672;10.014;2023-11-19T12:41:32;22.70;;;4.90;;
29362;SDS011;16349;53.672;10.014;2023-11-19T12:44:15;24.93;;;5.33;;
29362;SDS011;16349;53.672;10.014;2023-11-19T12:46:42;27.10;;;6.17;;
29362;SDS011;16349;53.672;10.014;2023-11-19T12:49:09;18.77;;;4.40;;
29362;SDS011;16349;53.672;10.014;2023-11-19T12:51:37;22.87;;;5.30;;
29362;SDS011;16349;53.672;10.014;2023-11-19T12:54:06;24.00;;;5.27;;
29362;SDS011;16349;53.672;10.014;2023-11-19T12:56:32;29.53;;;5.60;;
29362;SDS011;16349;53.672;10.014;2023-11-19T12:59:09;23.33;;;4.47;;
29362;SDS011;16349;53.672;10.014;2023-11-19T13:01:37;18.80;;;4.23;;
29362;SDS011;16349;53.672;10.014;2023-11-19T13:04:15;20.57;;;4.17;;
29362;SDS011;16349;53.672;10.014;2023-11-19T13:06:44;13.07;;;3.50;;
29362;SDS011;16349;53.672;10.014;2023-11-19T13:09:22;18.90;;;4.23;;
29362;SDS011;16349;53.672;10.014;2023-11-19T13:11:50;17.70;;;4.10;;
29362;SDS011;16349;53.672;10.014;2023-11-19T13:14:17;23.40;;;4.13;;
29362;SDS011;16349;53.672;10.014;2023-11-19T13:16:44;19.47;;;4.33;;
29362;SDS011;16349;53.672;10.014;2023-11-19T13:19:11;20.33;;;4.57;;
29362;SDS011;16349;53.672;10.014;2023-11-19T13:21:39;21.90;;;4.73;;
29362;SDS011;16349;53.672;10.014;2023-11-19T13:24:06;16.77;;;4.30;;
29362;SDS011;16349;53.672;10.014;2023-11-19T13:26:34;22.07;;;4.60;;
29362;SDS011;16349;53.672;10.014;2023-11-19T13:29:01;24.10;;;4.20;;
29362;SDS011;16349;53.672;10.014;2023-11-19T13:31:28;22.67;;;4.33;;
29362;SDS011;16349;53.672;10.014;2023-11-19T13:33:54;23.10;;;4.67;;
29362;SDS011;16349;53.672;10.014;2023-11-19T13:36:21;16.37;;;4.13;;
29362;SDS011;16349;53.672;10.014;2023-11-19T13:38:49;26.10;;;5.20;;
29362;SDS011;16349;53.672;10.014;2023-11-19T13:41:16;20.53;;;4.33;;
29362;SDS011;16349;53.672;10.014;2023-11-19T13:43:44;25.90;;;4.70;;
29362;SDS011;16349;53.672;10.014;2023-11-19T13:46:11;25.47;;;4.70;;
29362;SDS011;16349;53.672;10.014;2023-11-19T13:48:38;20.53;;;3.60;;
29362;SDS011;16349;53.672;10.014;2023-11-19T13:51:05;23.07;;;4.53;;
29362;SDS011;16349;53.672;10.014;2023-11-19T13:53:32;21.57;;;4.37;;
29362;SDS011;16349;53.672;10.014;2023-11-19T13:55:59;24.23;;;5.20;;
29362;SDS011;16349;53.672;10.014;2023-11-19T13:58:26;21.97;;;5.53;;
29362;SDS011;16349;53.672;10.014;2023-11-19T14:00:54;20.47;;;4.80;;
29362;SDS011;16349;53.672;10.014;2023-11-19T14:03:21;22.07;;;4.63;;
29362;SDS011;16349;53.672;10.014;2023-11-19T14:05:47;25.43;;;4.73;;
29362;SDS011;16349;53.672;10.014;2023-11-19T14:08:17;24.87;;;4.40;;
29362;SDS011;16349;53.672;10.014;2023-11-19T14:10:44;21.27;;;5.00;;
29362;SDS011;16349;53.672;10.014;2023-11-19T14:13:11;18.43;;;4.07;;
29362;SDS011;16349;53.672;10.014;2023-11-19T14:15:40;20.30;;;3.57;;
29362;SDS011;16349;53.672;10.014;2023-11-19T14:18:09;23.20;;;6.17;;
29362;SDS011;16349;53.672;10.014;2023-11-19T14:20:35;21.40;;;5.10;;
29362;SDS011;16349;53.672;10.014;2023-11-19T14:23:03;24.10;;;6.28;;
29362;SDS011;16349;53.672;10.014;2023-11-19T14:25:30;25.37;;;5.67;;
29362;SDS011;16349;53.672;10.014;2023-11-19T14:27:57;24.30;;;4.60;;
29362;SDS011;16349;53.672;10.014;2023-11-19T14:30:24;22.40;;;3.83;;
29362;SDS011;16349;53.672;10.014;2023-11-19T14:32:52;21.83;;;4.33;;
29362;SDS011;16349;53.672;10.014;2023-11-19T14:35:20;18.67;;;3.50;;
29362;SDS011;16349;53.672;10.014;2023-11-19T14:37:47;10.47;;;2.30;;